createdAt,value
2022-09-09T00:02:20.624Z,15.62
2022-09-09T00:04:59.360Z,15.73
2022-09-09T00:07:34.639Z,15.74
2022-09-09T00:10:14.606Z,15.76
2022-09-09T00:12:51.813Z,15.72
2022-09-09T00:15:21.815Z,15.72
2022-09-09T00:17:56.334Z,15.80
2022-09-09T00:20:30.654Z,15.75
2022-09-09T00:23:07.519Z,15.68
2022-09-09T00:25:38.917Z,15.62
2022-09-09T00:28:18.338Z,15.62
2022-09-09T00:30:49.482Z,15.62
2022-09-09T00:33:22.175Z,15.60
2022-09-09T00:35:51.884Z,15.66
2022-09-09T00:38:24.458Z,15.62
2022-09-09T00:40:54.167Z,15.62
2022-09-09T00:43:33.304Z,15.63
2022-09-09T00:46:24.199Z,15.68
2022-09-09T00:48:59.986Z,15.63
2022-09-09T00:51:40.374Z,15.60
2022-09-09T00:54:34.509Z,15.65
2022-09-09T00:57:14.834Z,15.66
2022-09-09T00:59:48.628Z,15.59
2022-09-09T01:02:19.184Z,15.59
2022-09-09T01:04:46.605Z,15.57
2022-09-09T01:07:18.774Z,15.54
2022-09-09T01:09:55.945Z,15.50
2022-09-09T01:12:32.310Z,15.43
2022-09-09T01:15:10.335Z,15.36
2022-09-09T01:17:50.411Z,15.34
2022-09-09T01:20:22.628Z,15.37
2022-09-09T01:23:05.808Z,15.36
2022-09-09T01:26:24.939Z,15.33
2022-09-09T01:28:53.831Z,15.32
2022-09-09T01:31:23.683Z,15.34
2022-09-09T01:33:51.137Z,15.32
2022-09-09T01:36:26.108Z,15.28
2022-09-09T01:38:53.507Z,15.26
2022-09-09T01:41:21.974Z,15.30
2022-09-09T01:43:49.494Z,15.26
2022-09-09T01:46:17.525Z,15.19
2022-09-09T01:48:44.851Z,15.11
2022-09-09T01:51:11.725Z,15.06
2022-09-09T01:53:40.411Z,14.96
2022-09-09T01:56:16.711Z,14.94
2022-09-09T01:58:58.782Z,14.90
2022-09-09T02:01:33.710Z,14.84
2022-09-09T02:04:08.662Z,14.83
2022-09-09T02:06:38.732Z,14.80
2022-09-09T02:09:07.555Z,14.83
2022-09-09T02:11:35.188Z,14.85
2022-09-09T02:14:09.483Z,14.85
2022-09-09T02:16:40.452Z,14.80
2022-09-09T02:19:14.257Z,14.79
2022-09-09T02:21:42.561Z,14.82
2022-09-09T02:24:11.444Z,14.86
2022-09-09T02:26:42.664Z,14.83
2022-09-09T02:29:15.661Z,14.85
2022-09-09T02:31:44.919Z,14.84
2022-09-09T02:34:14.341Z,14.86
2022-09-09T02:36:44.837Z,14.89
2022-09-09T02:39:12.298Z,14.87
2022-09-09T02:41:41.641Z,14.96
2022-09-09T02:44:13.344Z,15.02
2022-09-09T02:47:08.971Z,15.07
2022-09-09T02:49:51.081Z,15.04
2022-09-09T02:52:25.328Z,15.10
2022-09-09T02:54:57.991Z,15.08
2022-09-09T02:57:29.007Z,15.05
2022-09-09T02:59:58.495Z,15.04
2022-09-09T03:02:26.425Z,15.03
2022-09-09T03:04:53.679Z,15.05
2022-09-09T03:07:21.098Z,15.05
2022-09-09T03:09:47.981Z,15.00
2022-09-09T03:12:14.876Z,15.00
2022-09-09T03:14:41.776Z,15.05
2022-09-09T03:17:10.324Z,15.07
2022-09-09T03:19:38.579Z,15.14
2022-09-09T03:22:05.530Z,15.12
2022-09-09T03:24:32.323Z,15.11
2022-09-09T03:26:59.188Z,15.08
2022-09-09T03:29:26.049Z,15.12
2022-09-09T03:31:52.873Z,15.12
2022-09-09T03:34:21.221Z,15.16
2022-09-09T03:36:49.758Z,15.11
2022-09-09T03:39:16.603Z,15.14
2022-09-09T03:41:46.598Z,15.14
2022-09-09T03:44:13.429Z,15.14
2022-09-09T03:46:40.266Z,15.13
2022-09-09T03:49:07.394Z,15.17
2022-09-09T03:51:37.253Z,15.14
2022-09-09T03:54:06.167Z,15.13
2022-09-09T03:56:33.045Z,15.09
2022-09-09T03:59:00.014Z,15.08
2022-09-09T04:01:27.117Z,15.08
2022-09-09T04:03:54.011Z,15.06
2022-09-09T04:06:22.226Z,15.06
2022-09-09T04:08:52.807Z,15.00
2022-09-09T04:11:19.691Z,15.00
2022-09-09T04:13:46.714Z,14.98
2022-09-09T04:16:16.865Z,14.94
2022-09-09T04:18:44.469Z,14.94
2022-09-09T04:21:12.212Z,14.93
2022-09-09T04:23:39.502Z,14.95
2022-09-09T04:26:07.822Z,15.05
2022-09-09T04:28:36.822Z,15.04
2022-09-09T04:31:08.658Z,15.06
2022-09-09T04:33:39.912Z,15.04
2022-09-09T04:36:07.841Z,15.04
2022-09-09T04:38:34.678Z,15.07
2022-09-09T04:41:02.547Z,15.07
2022-09-09T04:43:31.844Z,15.01
2022-09-09T04:46:00.409Z,15.05
2022-09-09T04:48:28.628Z,15.02
2022-09-09T04:50:57.120Z,15.01
2022-09-09T04:53:24.458Z,14.98
2022-09-09T04:55:51.407Z,15.00
2022-09-09T04:58:18.341Z,14.99
2022-09-09T05:00:47.463Z,15.01
2022-09-09T05:03:14.437Z,14.90
2022-09-09T05:05:41.418Z,14.90
2022-09-09T05:08:10.018Z,14.89
2022-09-09T05:10:39.079Z,14.86
2022-09-09T05:13:06.275Z,14.87
2022-09-09T05:15:33.198Z,14.86
2022-09-09T05:18:02.295Z,14.81
2022-09-09T05:20:29.757Z,14.83
2022-09-09T05:22:57.485Z,14.79
2022-09-09T05:25:27.047Z,14.82
2022-09-09T05:27:54.812Z,14.82
2022-09-09T05:30:23.243Z,14.78
2022-09-09T05:32:50.137Z,14.83
2022-09-09T05:35:20.378Z,14.84
2022-09-09T05:37:48.968Z,14.82
2022-09-09T05:40:16.159Z,14.86
2022-09-09T05:42:43.174Z,14.88
2022-09-09T05:45:10.589Z,14.89
2022-09-09T05:47:38.442Z,14.92
2022-09-09T05:50:06.206Z,14.94
2022-09-09T05:52:34.571Z,14.97
2022-09-09T05:55:01.749Z,14.95
2022-09-09T05:57:28.592Z,14.96
2022-09-09T05:59:55.828Z,14.97
2022-09-09T06:02:22.882Z,15.00
2022-09-09T06:04:50.289Z,14.96
2022-09-09T06:07:17.762Z,14.89
2022-09-09T06:09:46.208Z,14.91
2022-09-09T06:12:13.134Z,14.93
2022-09-09T06:14:44.392Z,14.98
2022-09-09T06:17:13.179Z,15.10
2022-09-09T06:19:40.014Z,15.20
2022-09-09T06:22:06.926Z,15.34
2022-09-09T06:24:34.234Z,15.42
2022-09-09T06:27:02.529Z,15.46
2022-09-09T06:29:29.611Z,15.56
2022-09-09T06:31:56.935Z,15.64
2022-09-09T06:34:24.398Z,15.62
2022-09-09T06:36:52.128Z,15.67
2022-09-09T06:39:19.019Z,15.69
2022-09-09T06:41:45.923Z,15.84
2022-09-09T06:44:14.103Z,15.99
2022-09-09T06:46:41.295Z,16.23
2022-09-09T06:49:08.797Z,16.42
2022-09-09T06:51:37.614Z,16.58
2022-09-09T06:54:05.449Z,16.72
2022-09-09T06:56:34.727Z,16.87
2022-09-09T06:59:03.540Z,16.75
2022-09-09T07:01:34.151Z,16.64
2022-09-09T07:04:02.255Z,16.44
2022-09-09T07:06:31.259Z,16.43
2022-09-09T07:09:00.097Z,16.53
2022-09-09T07:11:29.650Z,16.54
2022-09-09T07:13:57.943Z,16.46
2022-09-09T07:16:26.102Z,16.48
2022-09-09T07:18:58.818Z,16.37
2022-09-09T07:21:27.725Z,16.32
2022-09-09T07:23:55.457Z,16.32
2022-09-09T07:26:24.529Z,16.23
2022-09-09T07:28:51.479Z,16.21
2022-09-09T07:31:21.691Z,16.11
2022-09-09T07:33:49.483Z,16.13
2022-09-09T07:36:19.752Z,16.06
2022-09-09T07:38:48.900Z,16.15
2022-09-09T07:41:19.127Z,16.15
2022-09-09T07:43:48.803Z,16.32
2022-09-09T07:46:17.421Z,16.45
2022-09-09T07:48:46.407Z,16.50
2022-09-09T07:51:19.944Z,16.56
2022-09-09T07:53:48.589Z,16.63
2022-09-09T07:56:20.041Z,16.82
2022-09-09T07:58:48.257Z,16.83
2022-09-09T08:01:19.278Z,16.80
2022-09-09T08:03:47.254Z,16.78
2022-09-09T08:06:14.819Z,16.70
2022-09-09T08:08:44.633Z,16.46
2022-09-09T08:11:15.649Z,16.44
2022-09-09T08:13:43.975Z,16.52
2022-09-09T08:16:13.281Z,16.55
2022-09-09T08:18:40.747Z,16.46
2022-09-09T08:21:11.396Z,16.67
2022-09-09T08:23:39.352Z,16.86
2022-09-09T08:26:08.073Z,17.01
2022-09-09T08:28:36.824Z,17.08
2022-09-09T08:31:12.730Z,17.00
2022-09-09T08:33:40.570Z,17.07
2022-09-09T08:36:22.914Z,16.87
2022-09-09T08:38:51.481Z,16.83
2022-09-09T08:41:41.281Z,16.79
2022-09-09T08:44:16.395Z,16.82
2022-09-09T08:46:52.589Z,16.83
2022-09-09T08:49:41.079Z,16.77
2022-09-09T08:52:14.023Z,17.01
2022-09-09T08:54:52.049Z,17.01
2022-09-09T08:57:23.020Z,17.39
2022-09-09T08:59:51.917Z,17.57
2022-09-09T09:02:25.803Z,17.46
2022-09-09T09:05:04.368Z,17.43
2022-09-09T09:07:45.860Z,17.54
2022-09-09T09:10:40.480Z,17.45
2022-09-09T09:13:15.911Z,17.33
2022-09-09T09:15:47.390Z,17.36
2022-09-09T09:18:15.059Z,17.32
2022-09-09T09:20:52.877Z,17.33
2022-09-09T09:23:24.322Z,17.42
2022-09-09T09:25:56.304Z,17.41
2022-09-09T09:28:25.788Z,17.32
2022-09-09T09:31:01.618Z,17.62
2022-09-09T09:33:34.425Z,17.40
2022-09-09T09:36:01.585Z,17.28
2022-09-09T09:41:19.322Z,17.39
2022-09-09T09:43:55.189Z,17.38
2022-09-09T09:46:25.288Z,17.40
2022-09-09T09:48:58.768Z,18.12
2022-09-09T09:51:27.578Z,18.81
2022-09-09T09:53:54.975Z,18.81
2022-09-09T09:56:33.552Z,18.59
2022-09-09T09:59:03.674Z,18.31
2022-09-09T10:01:37.863Z,18.25
2022-09-09T10:04:18.061Z,18.37
2022-09-09T10:06:45.193Z,18.39
2022-09-09T10:09:23.992Z,18.92
2022-09-09T10:11:59.225Z,19.19
2022-09-09T10:14:31.380Z,19.56
2022-09-09T10:17:14.298Z,19.53
2022-09-09T10:19:48.514Z,19.86
2022-09-09T10:22:26.840Z,-147.88
2022-09-09T10:25:15.731Z,-147.88
2022-09-09T10:27:58.979Z,-147.88
2022-09-09T10:30:36.637Z,-147.88
2022-09-09T10:33:11.263Z,-147.88
2022-09-09T10:35:45.157Z,-147.88
2022-09-09T10:38:16.353Z,-147.88
2022-09-09T10:40:52.645Z,-147.88
2022-09-09T10:43:40.066Z,-147.88
2022-09-09T10:46:16.352Z,-147.88
2022-09-09T10:49:00.276Z,-147.88
2022-09-09T10:51:31.350Z,-147.88
2022-09-09T10:54:20.626Z,-147.88
2022-09-09T10:56:58.125Z,-147.88
2022-09-09T10:59:30.280Z,-147.88
2022-09-09T11:02:03.492Z,-147.88
2022-09-09T11:04:39.849Z,-147.88
2022-09-09T11:07:12.078Z,-147.88
2022-09-09T11:09:46.293Z,-147.88
2022-09-09T11:12:20.439Z,-147.88
2022-09-09T11:14:50.768Z,-147.88
2022-09-09T11:17:21.870Z,-147.88
2022-09-09T11:19:50.476Z,-147.88
2022-09-09T11:22:30.500Z,-147.88
2022-09-09T11:25:02.810Z,-147.88
2022-09-09T11:27:36.760Z,-147.88
2022-09-09T11:30:37.693Z,-147.88
2022-09-09T11:33:33.590Z,-147.88
2022-09-09T11:36:17.876Z,-147.88
2022-09-09T11:38:53.019Z,-147.88
2022-09-09T11:41:22.488Z,-147.88
2022-09-09T11:43:54.933Z,19.03
2022-09-09T11:46:24.113Z,19.19
2022-09-09T11:49:01.511Z,19.33
2022-09-09T11:51:32.005Z,19.34
2022-09-09T11:54:02.325Z,19.21
2022-09-09T11:56:32.480Z,19.33
2022-09-09T11:59:04.036Z,19.33
2022-09-09T12:01:44.272Z,19.47
2022-09-09T12:04:33.528Z,19.53
2022-09-09T12:07:05.245Z,19.45
2022-09-09T12:09:47.262Z,19.29
2022-09-09T12:12:29.314Z,19.33
2022-09-09T12:15:15.810Z,19.51
2022-09-09T12:17:44.070Z,19.45
2022-09-09T12:20:16.151Z,19.65
2022-09-09T12:23:01.031Z,20.80
2022-09-09T12:25:40.819Z,20.33
2022-09-09T12:28:17.010Z,-147.88
2022-09-09T12:30:54.427Z,-147.88
2022-09-09T12:33:22.934Z,-147.88
2022-09-09T12:35:56.492Z,-147.88
2022-09-09T12:38:32.980Z,-147.88
2022-09-09T12:41:01.578Z,-147.88
2022-09-09T12:43:30.488Z,-147.88
2022-09-09T12:46:02.759Z,-147.88
2022-09-09T12:48:37.902Z,-147.88
2022-09-09T12:51:19.817Z,-147.88
2022-09-09T12:53:48.742Z,-147.88
2022-09-09T12:56:21.369Z,-147.88
2022-09-09T12:58:52.625Z,-147.88
2022-09-09T13:01:23.677Z,-147.88
2022-09-09T13:03:54.645Z,-147.88
2022-09-09T13:06:28.567Z,-147.88
2022-09-09T13:09:00.118Z,-147.88
2022-09-09T13:11:31.851Z,-147.88
2022-09-09T13:13:59.577Z,-147.88
2022-09-09T13:16:35.757Z,23.09
2022-09-09T13:19:10.207Z,-147.88
2022-09-09T13:21:38.653Z,-147.88
2022-09-09T13:24:23.538Z,-147.88
2022-09-09T13:26:57.656Z,-147.88
2022-09-09T13:29:24.563Z,-147.88
2022-09-09T13:31:53.928Z,-147.88
2022-09-09T13:34:29.630Z,23.30
2022-09-09T13:37:03.445Z,23.85
2022-09-09T13:39:32.457Z,23.06
2022-09-09T13:41:59.821Z,23.26
2022-09-09T13:44:30.191Z,23.38
2022-09-09T13:47:09.968Z,23.05
2022-09-09T13:49:37.870Z,22.82
2022-09-09T13:52:09.745Z,22.88
2022-09-09T13:54:38.139Z,23.36
2022-09-09T13:57:05.775Z,23.37
2022-09-09T14:00:04.003Z,23.47
2022-09-09T14:02:20.060Z,22.93
2022-09-09T14:04:48.418Z,22.88
2022-09-09T14:07:17.573Z,22.70
2022-09-09T14:09:51.065Z,21.63
2022-09-09T14:12:17.910Z,-147.88
2022-09-09T14:14:45.097Z,-147.88
2022-09-09T14:17:13.824Z,-147.88
2022-09-09T14:19:40.773Z,-147.88
2022-09-09T14:22:07.929Z,-147.88
2022-09-09T14:24:35.143Z,-147.88
2022-09-09T14:27:03.908Z,-147.88
2022-09-09T14:29:31.131Z,-147.88
2022-09-09T14:31:58.232Z,-147.88
2022-09-09T14:34:25.663Z,-147.88
2022-09-09T14:36:52.931Z,-147.88
2022-09-09T14:39:20.495Z,-147.88
2022-09-09T14:41:47.951Z,-147.88
2022-09-09T14:44:17.413Z,-147.88
2022-09-09T14:46:44.383Z,-147.88
2022-09-09T14:49:13.811Z,18.56
2022-09-09T14:51:40.818Z,18.70
2022-09-09T14:54:07.827Z,19.88
2022-09-09T14:56:36.211Z,19.39
2022-09-09T14:59:06.408Z,18.95
2022-09-09T15:01:37.446Z,18.94
2022-09-09T15:04:06.777Z,18.76
2022-09-09T15:06:36.856Z,18.68
2022-09-09T15:09:04.316Z,19.74
2022-09-09T15:11:35.985Z,20.80
2022-09-09T15:14:05.711Z,-147.88
2022-09-09T15:16:36.140Z,22.37
2022-09-09T15:19:04.850Z,-147.88
2022-09-09T15:21:35.087Z,22.36
2022-09-09T15:24:03.735Z,22.19
2022-09-09T15:26:31.261Z,21.97
2022-09-09T15:29:00.430Z,21.55
2022-09-09T15:31:29.693Z,20.51
2022-09-09T15:34:02.952Z,19.64
2022-09-09T15:36:33.442Z,18.88
2022-09-09T15:39:01.877Z,18.78
2022-09-09T15:41:30.559Z,18.33
2022-09-09T15:44:00.032Z,18.08
2022-09-09T15:46:31.628Z,17.80
2022-09-09T15:49:06.575Z,17.74
2022-09-09T15:51:49.232Z,17.63
2022-09-09T15:54:18.946Z,17.56
2022-09-09T15:56:47.609Z,-147.88
2022-09-09T15:59:15.803Z,17.58
2022-09-09T16:01:45.349Z,17.50
2022-09-09T16:04:15.168Z,17.56
2022-09-09T16:06:42.045Z,17.55
2022-09-09T16:09:09.458Z,17.49
2022-09-09T16:11:38.956Z,17.50
2022-09-09T16:14:07.809Z,17.40
2022-09-09T16:16:36.443Z,17.33
2022-09-09T16:19:06.704Z,17.32
2022-09-09T16:21:38.751Z,17.31
2022-09-09T16:24:07.344Z,17.26
2022-09-09T16:26:36.056Z,17.21
2022-09-09T16:29:04.219Z,17.19
2022-09-09T16:31:33.393Z,17.19
2022-09-09T16:34:01.984Z,16.82
2022-09-09T16:36:32.301Z,16.67
2022-09-09T16:39:03.459Z,16.47
2022-09-09T16:41:31.321Z,16.41
2022-09-09T16:44:00.637Z,16.28
2022-09-09T16:46:30.128Z,16.23
2022-09-09T16:48:59.258Z,16.28
2022-09-09T16:51:29.135Z,16.23
2022-09-09T16:53:56.774Z,16.19
2022-09-09T16:56:27.627Z,16.12
2022-09-09T16:58:56.730Z,16.17
2022-09-09T17:01:24.040Z,16.16
2022-09-09T17:03:57.560Z,16.17
2022-09-09T17:06:28.505Z,16.13
2022-09-09T17:08:56.297Z,16.14
2022-09-09T17:11:25.244Z,16.12
2022-09-09T17:13:55.786Z,16.06
2022-09-09T17:16:26.293Z,16.11
2022-09-09T17:18:55.382Z,16.16
2022-09-09T17:21:26.495Z,16.15
2022-09-09T17:23:55.091Z,16.14
2022-09-09T17:26:27.649Z,16.14
2022-09-09T17:28:59.402Z,16.15
2022-09-09T17:31:28.694Z,16.18
2022-09-09T17:33:57.198Z,16.11
2022-09-09T17:36:27.116Z,16.03
2022-09-09T17:38:54.426Z,16.02
2022-09-09T17:41:23.329Z,15.94
2022-09-09T17:43:52.396Z,15.87
2022-09-09T17:46:22.966Z,15.78
2022-09-09T17:48:52.610Z,15.85
2022-09-09T17:51:23.236Z,15.88
2022-09-09T17:53:51.387Z,15.73
2022-09-09T17:56:21.092Z,15.67
2022-09-09T17:58:49.539Z,15.60
2022-09-09T18:01:20.785Z,15.57
2022-09-09T18:03:49.173Z,15.50
2022-09-09T18:06:19.747Z,15.45
2022-09-09T18:08:49.813Z,15.43
2022-09-09T18:11:17.907Z,15.40
2022-09-09T18:13:49.330Z,15.36
2022-09-09T18:16:19.236Z,15.24
2022-09-09T18:18:46.668Z,15.23
2022-09-09T18:21:14.293Z,15.15
2022-09-09T18:23:47.138Z,15.16
2022-09-09T18:26:16.020Z,15.11
2022-09-09T18:28:47.538Z,15.05
2022-09-09T18:31:18.030Z,15.01
2022-09-09T18:33:46.820Z,14.96
2022-09-09T18:36:17.037Z,14.92
2022-09-09T18:38:44.553Z,14.91
2022-09-09T18:41:16.177Z,14.93
2022-09-09T18:43:44.327Z,14.88
2022-09-09T18:46:12.200Z,14.91
2022-09-09T18:48:40.556Z,14.98
2022-09-09T18:51:10.570Z,15.04
2022-09-09T18:53:38.268Z,14.92
2022-09-09T18:56:07.452Z,14.76
2022-09-09T18:58:35.266Z,14.63
2022-09-09T19:01:03.709Z,-147.88
2022-09-09T19:03:31.649Z,14.63
2022-09-09T19:06:04.361Z,14.51
2022-09-09T19:08:34.876Z,14.46
2022-09-09T19:11:02.718Z,14.40
2022-09-09T19:13:29.940Z,14.33
2022-09-09T19:15:57.005Z,-147.88
2022-09-09T19:18:23.853Z,14.34
2022-09-09T19:20:50.661Z,14.33
2022-09-09T19:23:19.459Z,14.28
2022-09-09T19:25:46.933Z,14.37
2022-09-09T19:28:14.059Z,14.30
2022-09-09T19:33:24.914Z,14.30
2022-09-09T19:35:57.767Z,14.25
2022-09-09T19:38:26.795Z,14.32
2022-09-09T19:40:53.914Z,14.32
2022-09-09T19:43:21.153Z,14.30
2022-09-09T19:45:57.591Z,14.35
2022-09-09T19:48:25.378Z,14.32
2022-09-09T19:50:52.472Z,14.43
2022-09-09T19:53:19.614Z,14.35
2022-09-09T19:55:51.022Z,14.30
2022-09-09T19:58:18.786Z,14.27
2022-09-09T20:00:46.297Z,14.24
2022-09-09T20:03:19.210Z,14.16
2022-09-09T20:05:49.458Z,14.10
2022-09-09T20:08:16.541Z,14.07
2022-09-09T20:10:52.659Z,-147.88
2022-09-09T20:13:19.584Z,14.07
2022-09-09T20:15:46.730Z,13.99
2022-09-09T20:18:14.353Z,14.13
2022-09-09T20:20:42.792Z,14.19
2022-09-09T20:23:09.925Z,14.09
2022-09-09T20:25:38.123Z,14.03
2022-09-09T20:28:06.428Z,14.08
2022-09-09T20:30:38.218Z,14.05
2022-09-09T20:33:05.108Z,13.96
2022-09-09T20:35:33.285Z,13.95
2022-09-09T20:38:00.942Z,13.91
2022-09-09T20:40:32.812Z,13.87
2022-09-09T20:43:00.349Z,13.89
2022-09-09T20:45:29.531Z,13.80
2022-09-09T20:47:57.193Z,13.78
2022-09-09T20:50:24.583Z,13.81
2022-09-09T20:52:52.513Z,13.84
2022-09-09T20:55:19.514Z,13.84
2022-09-09T20:57:46.917Z,13.80
2022-09-09T21:00:15.038Z,13.80
2022-09-09T21:02:43.336Z,13.76
2022-09-09T21:05:11.714Z,-147.88
2022-09-09T21:07:38.658Z,-147.88
2022-09-09T21:10:06.661Z,13.97
2022-09-09T21:12:34.577Z,13.85
2022-09-09T21:15:01.853Z,13.73
2022-09-09T21:17:28.988Z,13.65
2022-09-09T21:19:57.528Z,13.63
2022-09-09T21:22:24.464Z,13.62
2022-09-09T21:24:51.590Z,13.57
2022-09-09T21:27:18.663Z,13.56
2022-09-09T21:29:47.724Z,13.48
2022-09-09T21:32:15.211Z,13.46
2022-09-09T21:34:42.612Z,13.49
2022-09-09T21:37:12.332Z,13.47
2022-09-09T21:39:39.447Z,13.43
2022-09-09T21:42:06.880Z,13.42
2022-09-09T21:44:33.718Z,13.45
2022-09-09T21:47:00.616Z,13.42
2022-09-09T21:49:27.595Z,13.40
2022-09-09T21:51:55.237Z,13.49
2022-09-09T21:54:23.573Z,13.44
2022-09-09T21:56:52.333Z,13.42
2022-09-09T21:59:19.726Z,13.44
2022-09-09T22:01:47.426Z,13.37
2022-09-09T22:04:15.024Z,13.41
2022-09-09T22:06:42.217Z,13.46
2022-09-09T22:09:09.064Z,13.48
2022-09-09T22:11:37.304Z,13.49
2022-09-09T22:14:04.255Z,13.56
2022-09-09T22:16:32.084Z,13.61
2022-09-09T22:19:00.631Z,13.61
2022-09-09T22:21:29.140Z,13.62
2022-09-09T22:23:58.934Z,13.66
2022-09-09T22:26:29.719Z,13.68
2022-09-09T22:28:58.379Z,13.71
2022-09-09T22:31:26.340Z,13.72
2022-09-09T22:33:54.142Z,13.73
2022-09-09T22:36:22.328Z,13.65
2022-09-09T22:38:51.258Z,13.67
2022-09-09T22:41:20.803Z,13.61
2022-09-09T22:43:49.458Z,13.65
2022-09-09T22:46:19.174Z,13.61
2022-09-09T22:48:47.508Z,13.58
2022-09-09T22:51:15.607Z,13.58
2022-09-09T22:53:44.786Z,13.53
2022-09-09T22:56:15.238Z,13.55
2022-09-09T22:58:42.132Z,13.48
2022-09-09T23:01:11.488Z,13.49
2022-09-09T23:03:46.632Z,13.51
2022-09-09T23:06:22.554Z,13.50
2022-09-09T23:08:52.659Z,13.48
2022-09-09T23:11:20.252Z,13.47
2022-09-09T23:13:49.706Z,13.42
2022-09-09T23:16:18.751Z,13.41
2022-09-09T23:18:48.085Z,13.44
2022-09-09T23:21:15.820Z,13.40
2022-09-09T23:23:43.605Z,13.44
2022-09-09T23:26:12.632Z,13.41
2022-09-09T23:28:43.734Z,-147.88
2022-09-09T23:31:13.070Z,-147.88
2022-09-09T23:33:40.323Z,13.33
2022-09-09T23:36:11.711Z,13.32
2022-09-09T23:38:39.869Z,13.30
2022-09-09T23:41:09.834Z,13.31
2022-09-09T23:43:39.512Z,13.31
2022-09-09T23:46:06.772Z,13.29
2022-09-09T23:48:33.785Z,13.26
2022-09-09T23:51:00.760Z,13.28
2022-09-09T23:53:28.940Z,13.30
2022-09-09T23:55:55.724Z,13.28
2022-09-09T23:58:22.641Z,13.24
